createdAt,value
2023-05-01T00:00:54.484Z,65.37
2023-05-01T00:03:21.705Z,66.04
2023-05-01T00:05:48.896Z,65.77
2023-05-01T00:08:16.412Z,65.74
2023-05-01T00:10:43.463Z,64.42
2023-05-01T00:13:10.509Z,65.02
2023-05-01T00:15:37.582Z,64.52
2023-05-01T00:18:04.539Z,63.99
2023-05-01T00:20:31.684Z,63.83
2023-05-01T00:22:58.596Z,63.69
2023-05-01T00:25:25.627Z,64.26
2023-05-01T00:27:52.560Z,64.16
2023-05-01T00:30:19.460Z,63.87
2023-05-01T00:32:46.597Z,64.27
2023-05-01T00:35:13.635Z,63.80
2023-05-01T00:37:40.687Z,64.11
2023-05-01T00:40:08.575Z,64.14
2023-05-01T00:42:37.345Z,63.94
2023-05-01T00:45:04.574Z,63.98
2023-05-01T00:47:31.573Z,64.24
2023-05-01T00:49:59.984Z,64.26
2023-05-01T00:52:27.106Z,64.31
2023-05-01T00:54:55.187Z,64.31
2023-05-01T00:57:22.344Z,64.67
2023-05-01T00:59:49.561Z,64.40
2023-05-01T01:02:16.573Z,64.41
2023-05-01T01:04:46.675Z,64.63
2023-05-01T01:07:31.934Z,64.68
2023-05-01T01:10:41.336Z,64.85
2023-05-01T01:13:42.738Z,64.91
2023-05-01T01:16:16.368Z,65.07
2023-05-01T01:18:56.598Z,65.16
2023-05-01T01:21:32.732Z,65.40
2023-05-01T01:24:22.276Z,65.48
2023-05-01T01:27:02.636Z,66.14
2023-05-01T01:29:51.537Z,65.53
2023-05-01T01:32:48.993Z,65.83
2023-05-01T01:35:21.294Z,66.93
2023-05-01T01:38:36.140Z,66.43
2023-05-01T01:41:14.923Z,66.37
2023-05-01T01:43:47.006Z,66.16
2023-05-01T01:46:17.930Z,66.02
2023-05-01T01:48:49.123Z,65.94
2023-05-01T01:51:20.776Z,65.98
2023-05-01T01:53:52.260Z,66.14
2023-05-01T01:56:21.734Z,66.00
2023-05-01T01:58:48.763Z,65.98
2023-05-01T02:01:18.465Z,65.80
2023-05-01T02:03:47.943Z,66.30
2023-05-01T02:06:17.741Z,66.38
2023-05-01T02:08:49.083Z,65.83
2023-05-01T02:11:19.040Z,65.97
2023-05-01T02:13:46.493Z,65.82
2023-05-01T02:16:15.029Z,66.25
2023-05-01T02:18:43.783Z,66.18
2023-05-01T02:21:12.452Z,66.45
2023-05-01T02:23:39.442Z,66.10
2023-05-01T02:26:09.148Z,67.08
2023-05-01T02:28:41.521Z,68.29
2023-05-01T02:31:09.541Z,69.08
2023-05-01T02:33:36.524Z,69.81
2023-05-01T02:36:05.368Z,68.37
2023-05-01T02:38:32.859Z,66.86
2023-05-01T02:41:01.868Z,66.25
2023-05-01T02:43:29.440Z,65.74
2023-05-01T02:45:59.013Z,66.08
2023-05-01T02:48:28.284Z,65.86
2023-05-01T02:50:56.904Z,66.47
2023-05-01T02:53:23.854Z,66.45
2023-05-01T02:55:50.893Z,65.94
2023-05-01T02:58:18.921Z,65.93
2023-05-01T03:00:48.333Z,65.97
2023-05-01T03:03:16.374Z,65.59
2023-05-01T03:05:43.450Z,65.30
2023-05-01T03:08:10.803Z,65.26
2023-05-01T03:10:40.861Z,65.45
2023-05-01T03:13:08.505Z,65.35
2023-05-01T03:15:35.387Z,65.17
2023-05-01T03:18:02.530Z,64.98
2023-05-01T03:20:30.103Z,64.75
2023-05-01T03:22:57.649Z,65.02
2023-05-01T03:25:24.555Z,65.15
2023-05-01T03:27:53.117Z,65.52
2023-05-01T03:30:21.814Z,65.06
2023-05-01T03:32:48.773Z,65.22
2023-05-01T03:35:15.927Z,65.50
2023-05-01T03:37:42.962Z,65.82
2023-05-01T03:40:10.552Z,67.48
2023-05-01T03:42:37.474Z,68.03
2023-05-01T03:45:07.739Z,66.80
2023-05-01T03:47:34.892Z,65.77
2023-05-01T03:50:02.182Z,65.78
2023-05-01T03:52:29.389Z,66.09
2023-05-01T03:54:57.174Z,66.16
2023-05-01T03:57:24.213Z,65.68
2023-05-01T03:59:51.173Z,65.56
2023-05-01T04:02:18.594Z,65.41
2023-05-01T04:04:45.596Z,65.26
2023-05-01T04:07:14.115Z,65.42
2023-05-01T04:09:41.112Z,65.59
2023-05-01T04:12:08.065Z,65.80
2023-05-01T04:14:35.005Z,65.76
2023-05-01T04:17:02.088Z,65.53
2023-05-01T04:19:29.181Z,65.48
2023-05-01T04:21:56.970Z,65.51
2023-05-01T04:24:23.942Z,65.01
2023-05-01T04:26:50.953Z,65.16
2023-05-01T04:29:17.874Z,65.20
2023-05-01T04:31:44.898Z,65.11
2023-05-01T04:34:11.935Z,64.79
2023-05-01T04:36:38.965Z,64.14
2023-05-01T04:39:06.256Z,64.12
2023-05-01T04:41:33.156Z,64.36
2023-05-01T04:44:00.100Z,63.90
2023-05-01T04:46:27.072Z,63.77
2023-05-01T04:48:54.020Z,63.15
2023-05-01T04:51:21.673Z,63.32
2023-05-01T04:53:48.605Z,63.68
2023-05-01T04:56:15.927Z,64.41
2023-05-01T04:58:42.818Z,64.41
2023-05-01T05:01:10.228Z,63.14
2023-05-01T05:03:37.321Z,62.63
2023-05-01T05:06:04.589Z,62.40
2023-05-01T05:08:31.620Z,62.53
2023-05-01T05:11:02.449Z,62.40
2023-05-01T05:13:29.623Z,62.73
2023-05-01T05:15:56.595Z,62.67
2023-05-01T05:18:23.593Z,62.24
2023-05-01T05:20:50.701Z,61.85
2023-05-01T05:23:17.611Z,61.79
2023-05-01T05:25:44.504Z,60.94
2023-05-01T05:28:11.437Z,60.68
2023-05-01T05:30:38.484Z,60.37
2023-05-01T05:33:09.024Z,60.71
2023-05-01T05:35:35.999Z,60.89
2023-05-01T05:38:03.261Z,60.37
2023-05-01T05:40:30.204Z,60.54
2023-05-01T05:42:57.439Z,60.14
2023-05-01T05:45:24.481Z,60.22
2023-05-01T05:47:51.567Z,59.70
2023-05-01T05:50:18.547Z,58.63
2023-05-01T05:52:45.495Z,58.00
2023-05-01T05:55:12.568Z,57.55
2023-05-01T05:57:39.518Z,56.81
2023-05-01T06:00:07.990Z,57.04
2023-05-01T06:02:34.991Z,56.71
2023-05-01T06:05:02.118Z,56.39
2023-05-01T06:07:29.243Z,56.05
2023-05-01T06:10:01.737Z,55.92
2023-05-01T06:12:29.781Z,55.53
2023-05-01T06:14:57.349Z,55.18
2023-05-01T06:17:24.833Z,55.27
2023-05-01T06:19:55.198Z,55.17
2023-05-01T06:22:22.381Z,55.25
2023-05-01T06:24:49.374Z,54.78
2023-05-01T06:27:16.272Z,54.64
2023-05-01T06:29:43.134Z,54.44
2023-05-01T06:32:10.103Z,54.20
2023-05-01T06:34:37.054Z,54.39
2023-05-01T06:37:05.808Z,54.79
2023-05-01T06:39:32.701Z,53.72
2023-05-01T06:41:59.680Z,53.20
2023-05-01T06:44:26.573Z,53.24
2023-05-01T06:46:53.552Z,52.56
2023-05-01T06:49:20.451Z,52.27
2023-05-01T06:51:47.378Z,51.63
2023-05-01T06:54:14.323Z,51.57
2023-05-01T06:56:41.272Z,51.05
2023-05-01T06:59:09.137Z,50.97
2023-05-01T07:01:36.530Z,51.36
2023-05-01T07:04:04.197Z,50.88
2023-05-01T07:06:32.490Z,50.90
2023-05-01T07:08:59.456Z,50.94
2023-05-01T07:11:27.088Z,50.78
2023-05-01T07:13:54.725Z,51.01
2023-05-01T07:16:21.816Z,50.76
2023-05-01T07:18:48.804Z,49.69
2023-05-01T07:21:15.754Z,49.59
2023-05-01T07:23:42.729Z,49.68
2023-05-01T07:26:09.671Z,49.83
2023-05-01T07:28:36.615Z,50.04
2023-05-01T07:31:03.662Z,49.64
2023-05-01T07:33:30.699Z,49.46
2023-05-01T07:35:58.170Z,49.73
2023-05-01T07:38:25.159Z,49.46
2023-05-01T07:40:54.932Z,48.94
2023-05-01T07:43:21.921Z,49.35
2023-05-01T07:46:00.334Z,49.37
2023-05-01T07:48:29.019Z,49.53
2023-05-01T07:50:57.225Z,49.82
2023-05-01T07:53:24.227Z,49.83
2023-05-01T07:55:51.250Z,49.59
2023-05-01T07:58:18.157Z,48.94
2023-05-01T08:00:45.752Z,49.05
2023-05-01T08:03:13.325Z,48.80
2023-05-01T08:05:42.081Z,48.59
2023-05-01T08:08:09.819Z,48.38
2023-05-01T08:10:36.855Z,48.12
2023-05-01T08:13:03.851Z,47.76
2023-05-01T08:15:30.851Z,48.07
2023-05-01T08:17:57.807Z,48.17
2023-05-01T08:20:24.987Z,47.78
2023-05-01T08:22:51.912Z,47.95
2023-05-01T08:25:18.913Z,48.03
2023-05-01T08:27:45.828Z,47.74
2023-05-01T08:30:12.978Z,47.69
2023-05-01T08:32:39.996Z,47.67
2023-05-01T08:35:07.255Z,47.16
2023-05-01T08:37:34.708Z,47.73
2023-05-01T08:40:04.794Z,47.93
2023-05-01T08:42:32.442Z,47.57
2023-05-01T08:45:01.281Z,47.48
2023-05-01T08:47:30.717Z,47.88
2023-05-01T08:49:59.775Z,47.25
2023-05-01T08:52:29.210Z,47.20
2023-05-01T08:54:57.528Z,46.89
2023-05-01T08:57:25.490Z,47.28
2023-05-01T08:59:56.765Z,46.73
2023-05-01T09:02:24.972Z,46.45
2023-05-01T09:04:53.215Z,46.92
2023-05-01T09:07:20.235Z,45.97
2023-05-01T09:09:47.162Z,45.35
2023-05-01T09:12:24.366Z,44.90
2023-05-01T09:14:53.747Z,44.79
2023-05-01T09:17:22.632Z,44.57
2023-05-01T09:19:51.074Z,44.73
2023-05-01T09:22:19.098Z,44.64
2023-05-01T09:24:47.319Z,45.22
2023-05-01T09:27:15.230Z,45.52
2023-05-01T09:29:44.522Z,44.56
2023-05-01T09:32:16.232Z,44.60
2023-05-01T09:34:44.867Z,45.65
2023-05-01T09:37:34.248Z,45.03
2023-05-01T09:40:14.686Z,45.60
2023-05-01T09:42:50.239Z,45.86
2023-05-01T09:45:18.854Z,45.91
2023-05-01T09:47:47.045Z,45.79
2023-05-01T09:50:32.553Z,45.78
2023-05-01T09:53:05.260Z,45.93
2023-05-01T09:55:33.419Z,46.00
2023-05-01T09:58:00.823Z,46.05
2023-05-01T10:00:27.908Z,45.85
2023-05-01T10:02:55.139Z,45.24
2023-05-01T10:05:23.167Z,44.96
2023-05-01T10:08:03.852Z,44.46
2023-05-01T10:10:34.012Z,44.92
2023-05-01T10:13:17.881Z,44.55
2023-05-01T10:15:46.934Z,45.36
2023-05-01T10:18:14.746Z,44.90
2023-05-01T10:20:41.930Z,44.46
2023-05-01T10:23:09.486Z,44.34
2023-05-01T10:25:37.072Z,44.15
2023-05-01T10:28:07.560Z,44.34
2023-05-01T10:30:36.062Z,44.36
2023-05-01T10:33:03.713Z,43.58
2023-05-01T10:35:40.713Z,43.82
2023-05-01T10:38:20.069Z,43.30
2023-05-01T10:40:48.295Z,41.48
2023-05-01T10:43:19.413Z,40.41
2023-05-01T10:45:48.016Z,40.64
2023-05-01T10:48:40.356Z,39.76
2023-05-01T10:51:09.580Z,39.87
2023-05-01T10:53:36.951Z,40.03
2023-05-01T10:56:06.084Z,39.95
2023-05-01T10:58:53.318Z,39.24
2023-05-01T11:01:31.666Z,39.17
2023-05-01T11:04:10.473Z,40.52
2023-05-01T11:06:40.561Z,40.81
2023-05-01T11:09:36.457Z,40.89
2023-05-01T11:12:03.927Z,40.98
2023-05-01T11:14:57.741Z,40.26
2023-05-01T11:17:57.442Z,41.09
2023-05-01T11:20:24.434Z,41.40
2023-05-01T11:22:53.201Z,41.86
2023-05-01T11:25:21.817Z,41.22
2023-05-01T11:27:50.872Z,40.74
2023-05-01T11:30:18.367Z,41.01
2023-05-01T11:32:46.892Z,40.74
2023-05-01T11:35:18.402Z,39.82
2023-05-01T11:37:46.409Z,40.31
2023-05-01T11:40:33.349Z,40.45
2023-05-01T11:43:07.807Z,41.16
2023-05-01T11:45:37.069Z,41.32
2023-05-01T11:48:05.200Z,40.90
2023-05-01T11:50:33.421Z,40.92
2023-05-01T11:53:00.471Z,41.89
2023-05-01T11:55:34.742Z,43.01
2023-05-01T11:58:02.335Z,40.92
2023-05-01T12:00:34.116Z,40.74
2023-05-01T12:03:02.658Z,40.67
2023-05-01T12:05:31.753Z,40.83
2023-05-01T12:08:18.855Z,41.46
2023-05-01T12:10:48.662Z,40.89
2023-05-01T12:13:17.071Z,41.40
2023-05-01T12:15:48.746Z,41.04
2023-05-01T12:18:17.384Z,41.65
2023-05-01T12:20:52.362Z,41.96
2023-05-01T12:23:29.770Z,42.21
2023-05-01T12:25:56.992Z,41.26
2023-05-01T12:28:24.393Z,41.26
2023-05-01T12:30:51.429Z,41.07
2023-05-01T12:33:20.695Z,40.76
2023-05-01T12:35:49.868Z,40.84
2023-05-01T12:38:18.920Z,41.10
2023-05-01T12:40:57.958Z,41.45
2023-05-01T12:43:35.947Z,42.21
2023-05-01T12:46:04.860Z,41.58
2023-05-01T12:48:34.384Z,41.75
2023-05-01T12:51:01.785Z,41.99
2023-05-01T12:53:29.973Z,42.17
2023-05-01T12:55:58.957Z,41.22
2023-05-01T12:58:37.310Z,41.12
2023-05-01T13:01:04.888Z,41.25
2023-05-01T13:03:33.767Z,41.10
2023-05-01T13:06:03.342Z,41.47
2023-05-01T13:08:37.577Z,41.12
2023-05-01T13:11:16.454Z,40.02
2023-05-01T13:13:47.747Z,39.58
2023-05-01T13:16:16.588Z,39.51
2023-05-01T13:18:45.836Z,40.08
2023-05-01T13:21:16.353Z,40.61
2023-05-01T13:23:55.820Z,40.55
2023-05-01T13:26:35.667Z,40.73
2023-05-01T13:29:06.038Z,40.18
2023-05-01T13:31:33.168Z,40.28
2023-05-01T13:34:01.140Z,40.44
2023-05-01T13:36:33.147Z,40.00
2023-05-01T13:39:00.366Z,39.75
2023-05-01T13:41:28.312Z,39.74
2023-05-01T13:43:57.295Z,39.95
2023-05-01T13:46:27.196Z,40.31
2023-05-01T13:48:54.342Z,40.28
2023-05-01T13:51:27.371Z,39.73
2023-05-01T13:53:56.434Z,39.39
2023-05-01T13:56:23.519Z,39.33
2023-05-01T13:58:51.011Z,39.56
2023-05-01T14:01:20.899Z,39.09
2023-05-01T14:03:49.352Z,38.61
2023-05-01T14:06:19.587Z,38.58
2023-05-01T14:08:48.141Z,38.79
2023-05-01T14:11:15.674Z,38.78
2023-05-01T14:13:47.794Z,38.88
2023-05-01T14:16:25.265Z,39.14
2023-05-01T14:18:57.426Z,38.39
2023-05-01T14:21:28.239Z,38.18
2023-05-01T14:24:00.498Z,38.55
2023-05-01T14:26:27.851Z,38.59
2023-05-01T14:28:54.803Z,38.91
2023-05-01T14:31:21.776Z,39.28
2023-05-01T14:33:58.708Z,39.14
2023-05-01T14:36:28.641Z,39.69
2023-05-01T14:39:04.145Z,39.39
2023-05-01T14:41:32.287Z,40.03
2023-05-01T14:44:00.140Z,40.30
2023-05-01T14:46:35.708Z,40.26
2023-05-01T14:49:03.208Z,40.15
2023-05-01T14:51:32.357Z,40.35
2023-05-01T14:54:00.101Z,40.50
2023-05-01T14:56:27.323Z,40.80
2023-05-01T14:58:54.218Z,41.11
2023-05-01T15:01:21.716Z,40.80
2023-05-01T15:03:48.998Z,40.88
2023-05-01T15:06:16.250Z,40.60
2023-05-01T15:08:43.586Z,40.47
2023-05-01T15:11:11.742Z,40.77
2023-05-01T15:13:39.381Z,40.84
2023-05-01T15:16:08.356Z,40.50
2023-05-01T15:18:36.656Z,40.22
2023-05-01T15:21:04.690Z,40.41
2023-05-01T15:23:32.445Z,40.11
2023-05-01T15:26:01.052Z,39.38
2023-05-01T15:28:29.189Z,38.91
2023-05-01T15:30:56.439Z,39.53
2023-05-01T15:33:23.556Z,39.78
2023-05-01T15:35:52.781Z,40.43
2023-05-01T15:38:21.243Z,40.54
2023-05-01T15:40:50.129Z,40.25
2023-05-01T15:43:17.192Z,39.83
2023-05-01T15:45:45.008Z,39.33
2023-05-01T15:48:12.223Z,39.02
2023-05-01T15:50:39.425Z,38.75
2023-05-01T15:53:06.434Z,38.31
2023-05-01T15:55:34.409Z,38.48
2023-05-01T15:58:02.870Z,38.80
2023-05-01T16:00:29.944Z,39.45
2023-05-01T16:02:57.093Z,39.40
2023-05-01T16:05:26.818Z,39.59
2023-05-01T16:07:56.123Z,39.96
2023-05-01T16:10:23.496Z,39.66
2023-05-01T16:12:53.230Z,40.49
2023-05-01T16:15:20.346Z,40.66
2023-05-01T16:17:48.118Z,40.26
2023-05-01T16:20:17.294Z,40.96
2023-05-01T16:22:44.419Z,40.31
2023-05-01T16:25:12.140Z,40.41
2023-05-01T16:27:41.701Z,40.31
2023-05-01T16:30:09.485Z,39.86
2023-05-01T16:32:36.613Z,39.81
2023-05-01T16:35:05.676Z,40.23
2023-05-01T16:37:34.159Z,40.01
2023-05-01T16:40:01.873Z,40.20
2023-05-01T16:42:29.117Z,40.62
2023-05-01T16:44:57.008Z,40.71
2023-05-01T16:47:23.994Z,40.34
2023-05-01T16:49:52.502Z,40.11
2023-05-01T16:52:19.510Z,41.36
2023-05-01T16:54:46.495Z,41.19
2023-05-01T16:57:13.503Z,41.32
2023-05-01T16:59:40.660Z,41.94
2023-05-01T17:02:07.741Z,42.19
2023-05-01T17:04:34.990Z,42.33
2023-05-01T17:07:02.068Z,42.62
2023-05-01T17:09:29.074Z,43.54
2023-05-01T17:11:56.997Z,44.09
2023-05-01T17:14:24.079Z,43.80
2023-05-01T17:16:51.161Z,43.75
2023-05-01T17:19:18.181Z,43.86
2023-05-01T17:21:45.178Z,43.36
2023-05-01T17:24:14.109Z,43.26
2023-05-01T17:26:41.390Z,43.15
2023-05-01T17:29:08.635Z,43.28
2023-05-01T17:31:35.700Z,43.57
2023-05-01T17:34:02.665Z,43.62
2023-05-01T17:36:30.133Z,42.99
2023-05-01T17:38:57.128Z,42.52
2023-05-01T17:41:24.913Z,42.24
2023-05-01T17:43:51.928Z,41.73
2023-05-01T17:46:20.349Z,41.74
2023-05-01T17:48:48.719Z,41.94
2023-05-01T17:51:15.795Z,41.88
2023-05-01T17:53:42.805Z,41.93
2023-05-01T17:56:09.727Z,42.30
2023-05-01T17:58:36.795Z,42.74
2023-05-01T18:01:06.957Z,42.54
2023-05-01T18:03:34.086Z,43.21
2023-05-01T18:06:02.618Z,43.34
2023-05-01T18:08:29.695Z,43.72
2023-05-01T18:10:56.747Z,43.94
2023-05-01T18:13:28.679Z,44.21
2023-05-01T18:15:56.282Z,44.44
2023-05-01T18:18:23.822Z,44.94
2023-05-01T18:20:50.925Z,45.18
2023-05-01T18:23:19.028Z,45.31
2023-05-01T18:25:46.516Z,45.76
2023-05-01T18:28:16.518Z,45.76
2023-05-01T18:30:43.950Z,46.02
2023-05-01T18:33:12.319Z,46.17
2023-05-01T18:35:42.118Z,46.29
2023-05-01T18:38:10.173Z,46.51
2023-05-01T18:40:38.004Z,47.08
2023-05-01T18:43:05.226Z,47.28
2023-05-01T18:45:32.205Z,47.74
2023-05-01T18:48:00.897Z,48.19
2023-05-01T18:50:29.045Z,48.12
2023-05-01T18:52:56.091Z,48.57
2023-05-01T18:55:23.019Z,48.82
2023-05-01T18:57:50.035Z,48.94
2023-05-01T19:00:17.801Z,49.03
2023-05-01T19:02:51.423Z,49.13
2023-05-01T19:05:19.384Z,49.04
2023-05-01T19:07:46.750Z,48.92
2023-05-01T19:10:14.073Z,49.00
2023-05-01T19:12:42.293Z,50.17
2023-05-01T19:15:10.183Z,50.04
2023-05-01T19:17:37.563Z,50.05
2023-05-01T19:20:05.125Z,50.06
2023-05-01T19:22:32.147Z,50.12
2023-05-01T19:25:00.452Z,50.43
2023-05-01T19:27:27.503Z,50.32
2023-05-01T19:29:54.830Z,50.66
2023-05-01T19:32:23.373Z,50.98
2023-05-01T19:34:50.467Z,50.76
2023-05-01T19:37:17.698Z,50.58
2023-05-01T19:39:44.886Z,50.58
2023-05-01T19:42:12.124Z,50.91
2023-05-01T19:44:39.039Z,51.69
2023-05-01T19:47:06.315Z,52.19
2023-05-01T19:49:33.238Z,52.62
2023-05-01T19:52:00.704Z,52.47
2023-05-01T19:54:28.653Z,53.53
2023-05-01T19:56:56.250Z,52.92
2023-05-01T19:59:23.453Z,53.33
2023-05-01T20:01:50.777Z,53.29
2023-05-01T20:04:17.993Z,53.55
2023-05-01T20:06:45.142Z,53.22
2023-05-01T20:09:12.180Z,53.14
2023-05-01T20:11:39.212Z,53.23
2023-05-01T20:14:06.118Z,52.29
2023-05-01T20:16:33.312Z,51.41
2023-05-01T20:19:00.485Z,51.25
2023-05-01T20:21:27.583Z,51.06
2023-05-01T20:23:55.219Z,51.16
2023-05-01T20:26:22.208Z,51.24
2023-05-01T20:28:50.688Z,51.28
2023-05-01T20:31:17.896Z,51.36
2023-05-01T20:33:44.906Z,51.74
2023-05-01T20:36:11.828Z,51.64
2023-05-01T20:38:46.481Z,51.48
2023-05-01T20:41:14.171Z,51.71
2023-05-01T20:43:41.112Z,51.83
2023-05-01T20:46:08.347Z,52.11
2023-05-01T20:48:35.380Z,52.17
2023-05-01T20:51:02.359Z,52.51
2023-05-01T20:53:29.312Z,52.53
2023-05-01T20:55:56.276Z,52.80
2023-05-01T20:58:23.189Z,52.90
2023-05-01T21:00:52.874Z,52.90
2023-05-01T21:03:19.863Z,53.03
2023-05-01T21:05:46.876Z,53.38
2023-05-01T21:08:14.029Z,53.56
2023-05-01T21:10:41.455Z,54.08
2023-05-01T21:13:08.487Z,54.53
2023-05-01T21:15:35.497Z,54.77
2023-05-01T21:18:02.796Z,55.05
2023-05-01T21:20:31.993Z,55.20
2023-05-01T21:23:02.684Z,55.00
2023-05-01T21:25:32.059Z,55.54
2023-05-01T21:28:03.691Z,55.53
2023-05-01T21:30:35.229Z,56.54
2023-05-01T21:33:05.328Z,56.42
2023-05-01T21:35:32.990Z,56.92
2023-05-01T21:38:00.068Z,56.69
2023-05-01T21:40:27.435Z,57.32
2023-05-01T21:42:55.108Z,57.22
2023-05-01T21:45:22.339Z,57.26
2023-05-01T21:47:51.217Z,57.12
2023-05-01T21:50:21.509Z,56.96
2023-05-01T21:52:50.435Z,56.69
2023-05-01T21:55:26.217Z,56.53
2023-05-01T21:57:55.778Z,56.70
2023-05-01T22:00:22.843Z,57.17
2023-05-01T22:02:51.317Z,56.93
2023-05-01T22:05:22.717Z,57.12
2023-05-01T22:07:54.283Z,57.20
2023-05-01T22:10:21.534Z,57.41
2023-05-01T22:12:51.902Z,57.42
2023-05-01T22:15:19.196Z,57.72
2023-05-01T22:17:46.415Z,57.73
2023-05-01T22:20:13.592Z,57.95
2023-05-01T22:22:41.772Z,58.01
2023-05-01T22:25:10.285Z,58.19
2023-05-01T22:27:37.734Z,58.57
2023-05-01T22:30:05.653Z,58.78
2023-05-01T22:32:32.781Z,58.74
2023-05-01T22:34:59.900Z,58.95
2023-05-01T22:37:27.071Z,58.77
2023-05-01T22:39:54.206Z,59.26
2023-05-01T22:42:21.883Z,59.52
2023-05-01T22:44:49.197Z,59.64
2023-05-01T22:47:16.348Z,59.79
2023-05-01T22:49:43.291Z,59.99
2023-05-01T22:52:10.251Z,60.20
2023-05-01T22:54:37.224Z,60.24
2023-05-01T22:57:04.333Z,60.52
2023-05-01T22:59:31.466Z,60.51
2023-05-01T23:01:58.509Z,60.70
2023-05-01T23:04:25.595Z,61.03
2023-05-01T23:06:52.788Z,61.19
2023-05-01T23:09:19.753Z,61.69
2023-05-01T23:11:47.907Z,62.40
2023-05-01T23:14:18.505Z,62.93
2023-05-01T23:16:45.466Z,63.65
2023-05-01T23:19:20.710Z,63.98
2023-05-01T23:21:49.126Z,64.12
2023-05-01T23:24:18.458Z,64.40
2023-05-01T23:26:46.009Z,64.52
2023-05-01T23:29:13.955Z,64.85
2023-05-01T23:31:47.157Z,65.70
2023-05-01T23:34:17.793Z,66.52
2023-05-01T23:36:46.856Z,66.73
2023-05-01T23:39:14.418Z,66.89
2023-05-01T23:41:41.600Z,67.09
2023-05-01T23:44:09.686Z,67.09
2023-05-01T23:46:37.232Z,67.43
2023-05-01T23:49:04.462Z,67.59
2023-05-01T23:51:32.166Z,67.61
2023-05-01T23:54:00.058Z,67.74
2023-05-01T23:56:27.035Z,68.18
2023-05-01T23:58:53.967Z,68.11
